• Join FlightAware (Why Join?)
  • Login
  • US Flag 
12:34AM EDT


 

Airport Tracker/Info


-or-


 

Live Flight TrackerFlight Track Log ✈ FDX1254 ✈ 03-Jun-2013 ✈ KPVD - KFWA

Flight Track Log - Related Links

Times and Time Zones

All times are in EDT time to prevent confusion due to time zone crossing. See the FDX1254 flight status page for this flight to view local times or setup timezone preferences in your user account.

Time Position Orientation Groundspeed Altitude Reporting Facility
EDT Latitude Longitude Course Direction KTS MPH feet Rate Location/Type
08:53PM 41.7700 -71.6380 300° West 266 306 9,300  Level FlightAware
08:54PM 41.7960 -71.7000 299° West 299 344 11,000 1,920 Climbing FlightAware
08:54PM 41.8290 -71.7790 299° West 353 406 12,100 2,040 Climbing FlightAware
08:55PM 41.8600 -71.8560 298° West 365 420 13,900 2,640 Climbing FlightAware
08:56PM 41.8900 -71.9290 299° West 377 434 15,600 2,700 Climbing FlightAware
08:57PM 41.9300 -72.0320 298° West 370 426 17,800 1,740 Climbing FlightAware
08:57PM 41.9570 -72.1000 298° West 386 444 18,200 1,440 Climbing FlightAware
08:58PM 42.0130 -72.2410 298° West 398 458 20,300 1,260 Climbing FlightAware
08:59PM 42.0400 -72.3080 299° West 398 458 20,300 2,460 Level FlightAware
09:00PM 41.9700 -72.1340 118° Southeast 398 458 24,300 4,080 Climbing FlightAware
09:01PM 42.1340 -72.5470 298° West 427 491 26,900 3,000 Climbing FlightAware
09:01PM 42.1740 -72.6460 299° West 433 498 28,100 1,800 Climbing FlightAware
09:02PM 42.2200 -72.7650 298° West 440 506 29,500 1,320 Climbing FlightAware
09:03PM 42.2540 -72.8540 297° West 437 503 30,100 2,220 Climbing FlightAware
09:03PM 42.2790 -72.9220 296° West 416 479 32,700 1,920 Climbing FlightAware
09:04PM 42.2940 -73.0030 284° West 416 479 32,700 1,560 Level FlightAware
09:05PM 42.2710 -73.1810 260° West 388 447 35,400 1,920 Climbing FlightAware
09:06PM 42.2600 -73.3080 263° West 361 415 36,000 420 Climbing FlightAware
09:06PM 42.2510 -73.4000 263° West 367 422 36,000  Level FlightAware
09:07PM 42.2430 -73.4990 264° West 375 432 36,000  Level FlightAware
09:08PM 42.2330 -73.6020 263° West 380 437 36,000  Level FlightAware
09:08PM 42.2250 -73.6950 263° West 384 442 36,000  Level FlightAware
09:09PM 42.2160 -73.7850 262° West 386 444 36,000  Level FlightAware
09:10PM 42.2100 -73.8520 263° West 388 447 36,000  Level FlightAware
09:11PM 42.1950 -74.0090 263° West 394 453 36,000  Level FlightAware
09:12PM 42.1870 -74.0960 263° West 395 455 36,000  Level FlightAware
09:12PM 42.1780 -74.1960 263° West 395 455 36,000  Level FlightAware
09:13PM 42.1620 -74.3590 263° West 402 463 36,000  Level FlightAware
09:13PM 42.1545 -74.4281 262° West 403 464 36,000  Level FlightAware ADS-B
09:14PM 42.1409 -74.5645 262° West 403 464 36,000  Level FlightAware ADS-B
09:15PM 42.1334 -74.6392 262° West 403 464 36,000  Level FlightAware ADS-B
09:15PM 42.1257 -74.7160 262° West 403 464 36,000  Level FlightAware ADS-B
09:16PM 42.1171 -74.8002 262° West 403 464 36,000  Level FlightAware ADS-B
09:16PM 42.1092 -74.8770 262° West 402 463 36,000  Level FlightAware ADS-B
09:17PM 42.1011 -74.9562 262° West 402 463 36,000  Level FlightAware ADS-B
09:18PM 42.0940 -75.0250 262° West 401 461 36,000  Level FlightAware
09:18PM 42.0853 -75.1068 262° West 401 461 36,000  Level FlightAware ADS-B
09:19PM 42.0772 -75.1833 262° West 401 461 36,000  Level FlightAware ADS-B
09:19PM 42.0664 -75.2793 261° West 398 458 36,000  Level FlightAware ADS-B
09:20PM 42.0500 -75.3460 252° West 391 450 36,000  Level FlightAware
09:20PM 42.0409 -75.3699 243° Southwest 390 449 36,000  Level FlightAware ADS-B
09:20PM 42.0095 -75.4462 241° Southwest 389 448 36,000  Level FlightAware ADS-B
09:21PM 41.9823 -75.5116 241° Southwest 389 448 36,000  Level FlightAware ADS-B
09:22PM 41.9507 -75.5875 241° Southwest 389 448 36,000  Level FlightAware ADS-B
09:22PM 41.9210 -75.6600 241° Southwest 388 447 36,000  Level FlightAware
09:23PM 41.8840 -75.7480 241° Southwest 389 448 36,000  Level FlightAware
09:24PM 41.8480 -75.8361 241° Southwest 389 448 36,000  Level FlightAware ADS-B
09:24PM 41.8203 -75.9031 241° Southwest 388 447 36,000  Level FlightAware ADS-B
09:25PM 41.7929 -75.9681 241° Southwest 388 447 36,000  Level FlightAware ADS-B
09:25PM 41.7664 -76.0309 241° Southwest 386 444 36,000  Level FlightAware ADS-B
09:26PM 41.7397 -76.0955 241° Southwest 386 444 36,000  Level FlightAware ADS-B
09:26PM 41.7114 -76.1620 240° Southwest 386 444 36,000  Level FlightAware ADS-B
09:27PM 41.6847 -76.2244 240° Southwest 386 444 36,000  Level FlightAware ADS-B
09:27PM 41.6512 -76.3052 241° Southwest 386 444 36,000  Level FlightAware ADS-B
09:28PM 41.6248 -76.3674 240° Southwest 386 444 36,000  Level FlightAware ADS-B
09:28PM 41.5976 -76.4299 240° Southwest 387 445 36,000  Level FlightAware ADS-B
09:29PM 41.5685 -76.4986 241° Southwest 387 445 36,000  Level FlightAware ADS-B
09:29PM 41.5418 -76.5609 240° Southwest 388 447 36,000  Level FlightAware ADS-B
09:30PM 41.5150 -76.6252 241° Southwest 388 447 36,000  Level FlightAware ADS-B
09:30PM 41.4878 -76.6874 240° Southwest 388 447 36,000  Level FlightAware ADS-B
09:31PM 41.4589 -76.7560 241° Southwest 388 447 36,000  Level FlightAware ADS-B
09:31PM 41.4305 -76.8220 240° Southwest 387 445 36,000  Level FlightAware ADS-B
09:32PM 41.3929 -76.9089 240° Southwest 387 445 36,000  Level FlightAware ADS-B
09:33PM 41.3661 -76.9708 240° Southwest 387 445 36,000  Level FlightAware ADS-B
09:33PM 41.3266 -77.0618 240° Southwest 389 448 36,000  Level FlightAware ADS-B
09:34PM 41.2978 -77.1280 240° Southwest 389 448 36,000  Level FlightAware ADS-B
09:35PM 41.2329 -77.2771 240° Southwest 390 449 36,000  Level FlightAware ADS-B
09:36PM 41.2060 -77.3390 240° Southwest 390 449 36,000  Level FlightAware
09:36PM 41.1660 -77.4280 239° Southwest 390 449 36,000  Level FlightAware
09:37PM 41.1230 -77.5260 240° Southwest 392 451 36,000  Level FlightAware
09:38PM 41.0860 -77.6110 240° Southwest 392 451 36,000  Level FlightAware
09:39PM 41.0450 -77.7040 240° Southwest 393 452 36,000  Level FlightAware
09:39PM 41.0120 -77.7770 239° Southwest 394 453 36,000  Level FlightAware
09:40PM 40.9670 -77.8790 240° Southwest 394 453 36,000  Level FlightAware
09:41PM 40.9310 -77.9600 240° Southwest 395 455 36,000  Level FlightAware
09:41PM 40.9140 -78.0700 258° West 397 457 36,000  Level FlightAware
09:42PM 40.9100 -78.1670 267° West 398 458 36,000  Level FlightAware
09:43PM 40.9080 -78.2620 268° West 398 458 36,000  Level FlightAware
09:44PM 40.9030 -78.3860 267° West 398 458 36,000  Level FlightAware
09:44PM 40.8990 -78.5030 267° West 399 459 36,000  Level FlightAware
09:45PM 40.8950 -78.6020 267° West 399 459 36,000  Level FlightAware
09:46PM 40.8920 -78.6950 268° West 400 460 36,000  Level FlightAware
09:46PM 40.8880 -78.7950 267° West 401 461 36,000  Level FlightAware
09:47PM 40.8830 -78.9200 267° West 402 463 36,000  Level FlightAware
09:48PM 40.8790 -79.0160 267° West 402 463 36,000  Level FlightAware
09:49PM 40.8750 -79.1290 267° West 402 463 36,000  Level FlightAware
09:50PM 40.8690 -79.2640 267° West 403 464 36,000  Level FlightAware
09:50PM 40.8650 -79.3620 267° West 403 464 36,000  Level FlightAware
09:51PM 40.8600 -79.4730 267° West 404 465 36,000  Level FlightAware
09:52PM 40.8560 -79.5720 267° West 405 466 36,000  Level FlightAware
09:52PM 40.8510 -79.6780 266° West 405 466 36,000  Level FlightAware
09:53PM 40.8460 -79.7860 267° West 405 466 36,000  Level FlightAware
09:54PM 40.8410 -79.8800 266° West 405 466 36,000  Level FlightAware
09:54PM 40.8360 -79.9790 266° West 406 467 36,000  Level FlightAware
09:55PM 40.8300 -80.1130 267° West 406 467 36,000  Level FlightAware
09:56PM 40.8260 -80.2220 267° West 407 468 36,000  Level FlightAware
09:57PM 40.8310 -80.3210 274° West 407 468 36,000  Level FlightAware
09:58PM 40.8370 -80.4350 274° West 406 467 36,000  Level FlightAware
09:58PM 40.8420 -80.5410 274° West 405 466 36,000  Level FlightAware
09:59PM 40.8470 -80.6450 274° West 406 467 36,000  Level FlightAware
10:00PM 40.8520 -80.7540 274° West 405 466 36,000  Level FlightAware
10:00PM 40.8580 -80.8650 274° West 405 466 36,000  Level FlightAware
10:01PM 40.8620 -80.9640 273° West 404 465 36,000  Level FlightAware
10:02PM 40.8670 -81.0700 274° West 404 465 36,000  Level FlightAware
10:02PM 40.8710 -81.1710 273° West 405 466 36,000  Level FlightAware
10:03PM 40.8760 -81.2670 274° West 405 466 36,000  Level FlightAware
10:04PM 40.8800 -81.3580 273° West 405 466 36,000  Level FlightAware
10:04PM 40.8850 -81.4750 273° West 407 468 36,000  Level FlightAware
10:05PM 40.8890 -81.5860 273° West 405 466 36,000  Level FlightAware
10:06PM 40.8930 -81.6750 273° West 405 466 36,000  Level FlightAware
10:07PM 40.8960 -81.7910 272° West 406 467 36,000  Level FlightAware
10:07PM 40.8970 -81.8760 271° West 407 468 36,000  Level FlightAware
10:08PM 40.9000 -82.0010 272° West 409 471 36,000  Level FlightAware
10:09PM 40.9010 -82.1050 271° West 409 471 36,000  Level FlightAware
10:09PM 40.9020 -82.1820 271° West 409 471 36,000  Level FlightAware
10:10PM 40.9040 -82.2840 272° West 409 471 36,000  Level FlightAware
10:11PM 40.9050 -82.4010 271° West 409 471 36,000  Level FlightAware
10:12PM 40.9060 -82.4820 271° West 409 471 36,000  Level FlightAware
10:12PM 40.9070 -82.5600 271° West 409 471 36,000 -3,000 Level FlightAware
10:13PM 40.9220 -82.7770 275° West 422 486 31,800 -3,360 Descending FlightAware
10:14PM 40.9250 -82.8860 272° West 430 495 31,000 -600 Descending FlightAware
10:15PM 40.9290 -82.9950 273° West 435 501 31,000  Level FlightAware
10:15PM 40.9330 -83.1120 273° West 434 499 31,000  Level FlightAware
10:16PM 40.9370 -83.2230 273° West 434 499 31,000 -120 Level FlightAware
10:17PM 40.9400 -83.3240 272° West 431 496 30,900 -240 Descending FlightAware
10:17PM 40.9430 -83.4330 272° West 425 489 30,700 -3,000 Descending FlightAware
10:18PM 40.9470 -83.5410 273° West 424 488 26,700 -4,680 Descending FlightAware
10:19PM 40.9510 -83.6590 273° West 416 479 24,300 -3,180 Descending FlightAware
10:19PM 40.9540 -83.7590 272° West 405 466 22,200 -3,240 Descending FlightAware
10:20PM 40.9570 -83.8620 272° West 396 456 19,900 -3,300 Descending FlightAware
10:21PM 40.9600 -83.9670 272° West 387 445 17,500 -3,480 Descending FlightAware
10:22PM 40.9620 -84.0630 272° West 383 441 15,100 -3,480 Descending FlightAware
10:22PM 40.9650 -84.1650 272° West 374 430 12,700 -2,820 Descending FlightAware
10:23PM 40.9670 -84.2530 272° West 368 423 11,200 -1,320 Descending FlightAware
10:24PM 40.9680 -84.3500 271° West 367 422 10,900 -240 Descending FlightAware
10:24PM 40.9700 -84.4380 272° West 306 352 10,900 -360 Level FlightAware
10:25PM 40.9710 -84.5130 271° West 275 316 10,400 -1,080 Descending FlightAware
10:26PM 40.9720 -84.5600 272° West 270 311 9,700 -1,620 Descending FlightAware
10:26PM 40.9710 -84.6260 269° West 269 310 8,600 -1,080 Descending FlightAware
10:27PM 40.9680 -84.6860 266° West 269 310 8,200 -480 Descending FlightAware
10:27PM 40.9670 -84.7030 266° West 269 310 8,200  Level FlightAware
10:28PM 40.9650 -84.7370 266° West 269 310 8,200  Level FlightAware
10:28PM 40.9610 -84.8050 266° West 269 310 8,200 -2,700 Level FlightAware
10:29PM 40.9667 -84.8789 266° West 271 312 4,400 -2,880 Descending Chicago Center
10:30PM 40.9550 -84.9711 261° West 263 303 3,600 -720 Descending Chicago Center
10:31PM 40.9397 -85.0497 256° West 242 278 3,000 -840 Descending Chicago Center
10:32PM 40.9381 -85.1214 268° West 196 226 1,900 -780 Descending Chicago Center
10:33PM 40.9556 -85.1561 304° West 165 190 1,500 -420 Descending Chicago Center